Time;durP1;ratioP1;P1;durP2;ratioP2;P2;SDS_P1;SDS_P2;PMS_P1;PMS_P2;Temp;Humidity;BMP_temperature;BMP_pressure;BME280_temperature;BME280_humidity;BME280_pressure;Samples;Min_cycle;Max_cycle;Signal;HPM_P1;HPM_P2
2022/02/24 00:01:22;;;;;;;2.00;1.90;;;;;;;8.06;46.24;96107.38;4879855;29;20215;-84
2022/02/24 00:03:49;;;;;;;1.73;1.63;;;;;;;13.05;46.51;96951.09;4847704;29;20223;-83
2022/02/24 00:06:22;;;;;;;2.20;2.00;;;;;;;12.91;46.98;97062.13;4879667;29;20654;-86
2022/02/24 00:08:48;;;;;;;2.27;2.07;;;;;;;13.14;46.69;97130.66;4848593;29;20707;-85
2022/02/24 00:11:15;;;;;;;1.90;1.80;;;;;;;13.01;47.14;97065.16;4878949;29;20215;-85
2022/02/24 00:13:42;;;;;;;2.00;1.80;;;;;;;13.06;46.82;96957.84;4863163;29;20608;-85
2022/02/24 00:16:08;;;;;;;2.13;1.93;;;;;;;11.83;46.69;96932.50;4847402;29;20743;-78
2022/02/24 00:18:35;;;;;;;2.20;2.00;;;;;;;17.00;46.68;97642.16;4863380;29;20203;-78
2022/02/24 00:21:06;;;;;;;1.80;1.70;;;;;;;17.41;46.70;97774.53;4863081;29;20677;-76
2022/02/24 00:23:32;;;;;;;2.73;2.00;;;;;;;14.28;46.20;97212.69;4848291;29;20251;-78
2022/02/24 00:25:59;;;;;;;2.20;2.00;;;;;;;17.70;46.64;97770.91;4863641;29;20229;-77
2022/02/24 00:28:28;;;;;;;2.87;2.00;;;;;;;10.67;46.26;96547.78;4879627;29;20215;-81
2022/02/24 00:30:54;;;;;;;2.57;2.17;;;;;;;8.83;46.17;96226.22;4863558;29;20210;-78
2022/02/24 00:33:30;;;;;;;2.67;2.10;;;;;;;11.89;46.53;96920.25;4847642;29;20234;-79
2022/02/24 00:36:03;;;;;;;2.43;2.23;;;;;;;16.16;46.45;97490.75;4879669;29;20251;-78
2022/02/24 00:38:30;;;;;;;2.33;2.10;;;;;;;9.09;46.40;96278.69;4834594;29;20210;-78
2022/02/24 00:40:57;;;;;;;2.03;1.83;;;;;;;17.51;46.11;97750.50;4862819;29;20239;-78
2022/02/24 00:43:29;;;;;;;2.23;2.00;;;;;;;18.23;46.32;97845.53;4863445;29;20294;-81
2022/02/24 00:45:56;;;;;;;2.20;2.00;;;;;;;18.81;45.83;97951.88;4880191;29;20215;-77
2022/02/24 00:48:23;;;;;;;2.53;2.10;;;;;;;12.19;46.51;96858.13;4880461;29;20218;-81
2022/02/24 00:50:49;;;;;;;2.77;2.27;;;;;;;15.20;46.15;97306.00;4862986;29;20269;-78
2022/02/24 00:53:16;;;;;;;2.83;2.13;;;;;;;15.07;46.20;97271.59;4879913;29;20770;-78
2022/02/24 00:55:44;;;;;;;2.00;1.80;;;;;;;18.34;46.45;97844.38;4878345;29;20230;-78
2022/02/24 00:58:10;;;;;;;2.17;2.00;;;;;;;17.54;46.35;97732.88;4879622;29;20215;-77
2022/02/24 01:00:37;;;;;;;1.93;1.77;;;;;;;18.80;46.51;97908.50;4844311;29;20292;-77
2022/02/24 01:03:09;;;;;;;1.97;1.80;;;;;;;18.45;46.18;97861.06;4860964;29;20583;-76
2022/02/24 01:05:36;;;;;;;2.53;2.33;;;;;;;18.44;46.29;97850.81;4844488;29;20204;-78
2022/02/24 01:08:17;;;;;;;2.83;2.20;;;;;;;18.51;46.32;97861.34;4860534;29;20664;-78
2022/02/24 01:10:54;;;;;;;2.30;2.10;;;;;;;17.79;46.36;97744.28;4845837;29;20204;-77
2022/02/24 01:13:31;;;;;;;2.90;2.27;;;;;;;16.24;46.43;97476.81;4845139;29;20246;-79
2022/02/24 01:16:09;;;;;;;2.53;2.17;;;;;;;16.24;46.42;97476.81;4862765;29;20732;-80
2022/02/24 01:18:38;;;;;;;2.43;1.90;;;;;;;17.91;46.12;97769.38;4847625;29;20623;-78
2022/02/24 01:21:04;;;;;;;2.50;2.27;;;;;;;18.80;46.35;97924.63;4862039;29;20199;-80
2022/02/24 01:23:31;;;;;;;2.43;2.20;;;;;;;18.80;46.32;97918.69;4878823;29;20253;-78
2022/02/24 01:25:59;;;;;;;2.67;2.20;;;;;;;18.48;46.64;97960.47;4862456;29;20243;-79
2022/02/24 01:28:26;;;;;;;2.20;2.00;;;;;;;18.81;46.32;97973.91;4862695;29;20210;-79
2022/02/24 01:30:52;;;;;;;3.27;2.50;;;;;;;8.19;46.23;96074.75;4878154;29;20338;-78
2022/02/24 01:33:20;;;;;;;2.97;2.37;;;;;;;17.25;46.34;97641.66;4901730;23;20262;-85
2022/02/24 01:35:48;;;;;;;2.80;2.40;;;;;;;13.81;46.39;97093.09;4852223;29;20578;-85
2022/02/24 02:18:46;;;;;;;3.43;2.50;;;;;;;18.13;46.65;97779.78;5330859;23;20237;-86
2022/02/24 02:21:14;;;;;;;3.73;2.40;;;;;;;14.31;46.35;97087.38;4879982;29;20214;-85
2022/02/24 02:23:41;;;;;;;3.07;2.40;;;;;;;14.82;47.03;97207.91;4883403;29;20230;-86
2022/02/24 02:26:07;;;;;;;4.03;2.70;;;;;;;13.81;46.49;97015.69;4863871;29;20202;-86
2022/02/24 02:28:37;;;;;;;4.23;2.93;;;;;;;17.63;46.47;97711.31;4850777;29;20220;-86
2022/02/24 02:31:04;;;;;;;4.23;2.83;;;;;;;13.85;46.46;97024.28;4885334;29;20584;-86
2022/02/24 02:33:31;;;;;;;3.93;2.60;;;;;;;16.26;46.58;97505.66;4886994;29;20762;-85
2022/02/24 02:35:58;;;;;;;2.97;2.47;;;;;;;16.03;46.31;97410.72;4902066;29;20293;-86
2022/02/24 02:38:25;;;;;;;3.07;2.30;;;;;;;14.96;46.25;97191.78;4886879;29;20201;-86
2022/02/24 02:40:52;;;;;;;3.13;2.63;;;;;;;14.30;46.07;97131.09;4871467;29;20213;-86
2022/02/24 02:43:21;;;;;;;3.50;2.70;;;;;;;14.41;46.29;97139.22;4871172;29;20221;-85
2022/02/24 02:45:48;;;;;;;3.53;2.70;;;;;;;13.97;46.43;97008.09;4902130;29;20197;-86
2022/02/24 02:48:15;;;;;;;4.83;2.80;;;;;;;16.57;46.61;97462.34;4886802;29;20631;-85
2022/02/24 02:50:42;;;;;;;4.23;2.67;;;;;;;16.72;46.17;97476.66;4871453;29;20292;-85
2022/02/24 02:53:09;;;;;;;2.60;2.40;;;;;;;15.86;46.32;97317.81;4901576;29;20285;-85
2022/02/24 02:55:36;;;;;;;3.17;2.70;;;;;;;14.99;46.30;97229.88;4886012;29;20194;-85
2022/02/24 02:58:02;;;;;;;5.40;3.00;;;;;;;15.69;45.98;97318.66;4870789;29;20277;-84
2022/02/24 03:00:29;;;;;;;4.00;2.50;;;;;;;17.90;46.37;97694.81;4871093;29;20214;-85
2022/02/24 03:02:59;;;;;;;4.10;2.67;;;;;;;17.28;46.11;97555.44;4870653;29;20700;-86
2022/02/24 03:05:26;;;;;;;3.93;2.40;;;;;;;16.64;46.19;97456.78;4876750;29;20198;-85
2022/02/24 03:07:55;;;;;;;5.93;3.30;;;;;;;17.16;46.24;97534.56;4886378;29;20206;-85
2022/02/24 03:10:22;;;;;;;4.90;2.97;;;;;;;17.97;46.25;97685.81;4885703;29;20676;-85
2022/02/24 03:12:49;;;;;;;3.77;2.50;;;;;;;17.27;46.23;97549.50;4870112;29;20230;-85
2022/02/24 03:15:17;;;;;;;6.07;2.97;;;;;;;17.32;46.46;97610.69;4901167;29;20556;-84
2022/02/24 03:17:44;;;;;;;5.47;3.03;;;;;;;12.56;45.80;96749.31;4870281;29;20692;-84
2022/02/24 03:20:11;;;;;;;5.00;2.70;;;;;;;14.99;46.24;97145.50;4885988;29;20580;-84
2022/02/24 03:22:38;;;;;;;3.97;2.60;;;;;;;14.44;46.56;97074.53;4869518;29;20224;-85
2022/02/24 03:25:05;;;;;;;4.30;2.97;;;;;;;17.06;46.09;97562.88;4885663;29;20232;-86
2022/02/24 03:27:34;;;;;;;3.47;2.77;;;;;;;15.87;46.41;97313.63;4885792;29;20210;-86
2022/02/24 03:30:02;;;;;;;4.63;3.00;;;;;;;14.66;46.75;97138.00;4885587;29;20205;-86
2022/02/24 03:32:29;;;;;;;3.30;2.50;;;;;;;18.34;46.75;97726.47;4870336;29;20226;-84
2022/02/24 03:34:56;;;;;;;5.03;3.17;;;;;;;15.29;46.34;97215.31;4869803;29;20201;-86
2022/02/24 03:37:23;;;;;;;4.93;2.60;;;;;;;14.61;46.33;97110.75;4869976;29;20212;-84
2022/02/24 03:39:52;;;;;;;4.07;3.03;;;;;;;14.68;46.04;97102.66;4869962;29;20205;-86
2022/02/24 03:42:20;;;;;;;3.03;2.67;;;;;;;17.15;46.47;97527.75;4869922;29;20217;-86
2022/02/24 03:44:46;;;;;;;5.27;3.10;;;;;;;18.76;46.57;97815.81;4885450;29;20234;-86
2022/02/24 03:47:14;;;;;;;3.17;2.77;;;;;;;17.23;46.48;97526.44;4884911;29;20213;-85
2022/02/24 03:49:44;;;;;;;3.33;2.80;;;;;;;15.32;46.44;97188.50;4901559;29;20205;-84
2022/02/24 03:52:11;;;;;;;2.83;2.43;;;;;;;18.27;46.29;97687.19;4915737;29;20655;-84
2022/02/24 03:54:38;;;;;;;3.13;2.70;;;;;;;18.31;46.73;97754.31;4892604;29;20210;-86
2022/02/24 04:29:28;;;;;;;3.93;2.93;;;;;;;13.49;46.43;96904.63;5839135;23;20273;-84
2022/02/24 04:31:57;;;;;;;3.63;2.80;;;;;;;16.08;46.21;97285.06;4862358;29;20207;-85
2022/02/24 04:34:24;;;;;;;4.00;2.90;;;;;;;15.09;46.22;97153.63;4863659;29;20226;-85
2022/02/24 04:36:50;;;;;;;5.13;2.77;;;;;;;12.98;46.07;96750.63;4850497;29;20232;-85
2022/02/24 04:39:17;;;;;;;4.67;2.80;;;;;;;13.86;46.61;96928.38;4850881;29;20213;-85
2022/02/24 04:41:47;;;;;;;3.27;2.60;;;;;;;14.71;46.35;97031.16;4850093;29;20216;-85
2022/02/24 04:44:18;;;;;;;3.73;2.97;;;;;;;14.88;46.27;97094.41;4851918;29;20222;-84
2022/02/24 04:46:51;;;;;;;5.60;2.60;;;;;;;17.73;46.08;97621.09;4850104;29;20202;-85
2022/02/24 04:49:21;;;;;;;4.23;2.70;;;;;;;13.01;46.33;96723.09;4866910;29;20206;-85
2022/02/24 04:51:48;;;;;;;3.53;2.80;;;;;;;15.28;46.28;97128.38;4862594;29;20206;-86
2022/02/24 04:54:15;;;;;;;3.27;2.83;;;;;;;15.17;46.24;97171.69;4846646;29;20712;-85
2022/02/24 04:56:42;;;;;;;4.43;2.80;;;;;;;13.59;46.39;96837.81;4839843;29;20285;-86
2022/02/24 04:59:09;;;;;;;5.10;2.90;;;;;;;13.44;46.25;96796.69;4834438;29;20275;-87
2022/02/24 05:01:35;;;;;;;4.27;2.80;;;;;;;16.53;46.23;97308.28;4853873;29;20203;-86
2022/02/24 05:04:05;;;;;;;3.33;2.57;;;;;;;13.42;46.16;96819.31;4879985;29;20232;-84
2022/02/24 05:06:32;;;;;;;3.57;2.87;;;;;;;14.81;46.39;97021.56;4849176;29;20214;-86
2022/02/24 05:08:59;;;;;;;4.27;3.20;;;;;;;14.45;46.54;97032.44;4849990;29;20195;-86
2022/02/24 05:11:26;;;;;;;3.30;2.53;;;;;;;14.67;46.24;97027.59;4880325;29;20205;-85
2022/02/24 05:13:52;;;;;;;4.03;2.80;;;;;;;14.56;46.61;97048.97;4850046;29;20723;-86
2022/02/24 05:16:23;;;;;;;4.83;3.17;;;;;;;13.73;46.57;96820.00;4849308;29;20301;-84
2022/02/24 05:18:50;;;;;;;3.67;2.90;;;;;;;11.19;46.41;96391.44;4864508;29;20198;-85
2022/02/24 05:21:17;;;;;;;3.87;2.63;;;;;;;15.36;46.63;97113.53;4869242;29;20293;-87
2022/02/24 05:23:44;;;;;;;4.00;2.83;;;;;;;13.13;46.19;96702.63;4864141;29;20250;-86
2022/02/24 05:26:13;;;;;;;4.53;2.97;;;;;;;16.42;46.26;97338.19;4859312;29;20217;-85
2022/02/24 05:28:40;;;;;;;4.60;3.00;;;;;;;13.45;46.41;96822.00;4862424;29;20682;-87
2022/02/24 05:31:07;;;;;;;5.93;3.03;;;;;;;16.55;46.43;97373.50;4851132;29;20218;-85
2022/02/24 05:33:34;;;;;;;3.40;2.70;;;;;;;15.70;46.48;97208.94;4848147;29;20305;-85
2022/02/24 05:36:02;;;;;;;4.20;3.20;;;;;;;12.36;46.15;96600.47;4844494;29;20206;-86
2022/02/24 05:38:32;;;;;;;5.00;2.90;;;;;;;16.75;46.38;97450.56;4834447;29;20206;-87
2022/02/24 05:41:04;;;;;;;6.37;3.30;;;;;;;11.26;46.22;96410.22;4847820;29;20199;-86
2022/02/24 05:43:31;;;;;;;4.40;3.27;;;;;;;14.44;46.15;96986.06;4850055;29;20225;-85
2022/02/24 05:45:58;;;;;;;3.80;2.87;;;;;;;13.03;45.64;96702.97;4839482;29;20202;-85
2022/02/24 05:48:25;;;;;;;3.90;3.23;;;;;;;14.91;46.19;97045.59;4846245;29;20248;-85
2022/02/24 05:50:52;;;;;;;3.57;2.77;;;;;;;14.41;46.88;96985.03;4859563;29;20210;-84
2022/02/24 05:53:19;;;;;;;4.17;3.00;;;;;;;15.03;46.71;97051.22;4848376;29;20607;-86
2022/02/24 05:55:46;;;;;;;5.67;3.43;;;;;;;18.75;46.43;97703.72;4856807;29;20601;-85
2022/02/24 05:58:12;;;;;;;3.90;3.10;;;;;;;18.06;46.10;97575.16;4851883;29;20218;-82
2022/02/24 06:00:40;;;;;;;4.00;3.07;;;;;;;13.66;46.34;96835.66;4849747;29;20219;-85
2022/02/24 06:03:10;;;;;;;8.63;3.57;;;;;;;13.05;45.93;96824.97;4866540;29;20545;-86
2022/02/24 06:05:37;;;;;;;4.77;3.00;;;;;;;15.89;46.53;97239.41;4854856;29;20661;-85
2022/02/24 06:08:04;;;;;;;3.83;2.97;;;;;;;13.85;46.16;96833.22;4856642;29;20259;-85
2022/02/24 06:10:30;;;;;;;5.23;3.30;;;;;;;17.15;46.43;97405.88;4845292;29;20199;-86
2022/02/24 06:12:58;;;;;;;4.80;3.03;;;;;;;18.26;46.20;97590.44;4849191;29;20254;-87
2022/02/24 06:15:25;;;;;;;4.67;3.27;;;;;;;17.18;46.26;97404.34;4844605;29;20226;-86
2022/02/24 06:17:52;;;;;;;4.30;3.17;;;;;;;17.29;46.35;97425.13;4876339;29;20271;-88
2022/02/24 06:20:18;;;;;;;5.37;3.23;;;;;;;18.54;46.11;97660.44;4846340;29;20207;-87
2022/02/24 06:22:49;;;;;;;5.60;2.97;;;;;;;17.46;46.31;97445.41;4838229;29;20309;-86
2022/02/24 06:25:15;;;;;;;8.40;4.73;;;;;;;17.80;45.49;97506.22;4832177;29;20277;-86
2022/02/24 06:27:42;;;;;;;13.47;6.93;;;;;;;18.33;43.00;97612.78;4853138;29;20297;-85
2022/02/24 06:30:09;;;;;;;16.03;7.83;;;;;;;18.31;41.57;97596.56;4848873;29;20234;-86
2022/02/24 06:32:37;;;;;;;17.43;9.87;;;;;;;18.29;40.28;97599.06;4848854;29;20761;-86
2022/02/24 06:35:05;;;;;;;17.57;11.83;;;;;;;17.94;39.92;97538.16;4860068;29;20656;-86
2022/02/24 06:37:31;;;;;;;20.47;10.80;;;;;;;18.23;39.56;97606.41;4848552;29;20202;-84
2022/02/24 06:39:58;;;;;;;16.20;11.23;;;;;;;18.05;38.53;97560.72;4844831;29;20268;-86
2022/02/24 06:42:25;;;;;;;16.50;10.47;;;;;;;18.26;38.09;97582.81;4871017;29;20207;-86
2022/02/24 06:44:51;;;;;;;14.27;9.30;;;;;;;18.20;37.79;97573.22;4848813;29;20274;-86
2022/02/24 06:47:19;;;;;;;15.50;9.27;;;;;;;17.74;37.35;97496.63;4879228;29;20234;-87
2022/02/24 06:49:45;;;;;;;18.07;9.23;;;;;;;18.13;38.03;97571.22;4862803;29;20245;-86
2022/02/24 06:52:12;;;;;;;12.70;8.50;;;;;;;17.90;38.50;97523.59;4845922;29;20242;-86
2022/02/24 06:54:38;;;;;;;18.97;9.80;;;;;;;17.72;38.68;97505.88;4861161;29;20262;-84
2022/02/24 06:57:06;;;;;;;13.27;8.33;;;;;;;17.92;39.02;97538.09;4846265;29;20207;-86
2022/02/24 06:59:34;;;;;;;12.70;7.93;;;;;;;16.75;39.72;97328.78;4849038;29;20901;-86
2022/02/24 07:02:03;;;;;;;12.67;8.27;;;;;;;18.22;39.71;97584.34;4862413;29;20200;-85
2022/02/24 07:04:31;;;;;;;13.47;8.10;;;;;;;18.22;40.18;97599.59;4848435;29;20207;-86
2022/02/24 07:06:58;;;;;;;13.37;8.07;;;;;;;18.20;40.78;97596.13;4856588;29;20289;-87
2022/02/24 07:09:25;;;;;;;13.00;7.80;;;;;;;17.47;41.25;97472.56;4864456;29;20210;-86
2022/02/24 07:11:52;;;;;;;13.50;7.67;;;;;;;18.13;41.21;97578.88;4863777;29;20238;-86
2022/02/24 07:14:19;;;;;;;11.27;7.33;;;;;;;17.98;41.91;97558.75;4864059;29;20261;-87
2022/02/24 07:16:46;;;;;;;9.53;6.87;;;;;;;18.02;42.13;97570.78;4880999;29;20223;-85
2022/02/24 07:19:13;;;;;;;12.83;8.23;;;;;;;18.38;42.14;97624.06;4865744;29;20577;-85
2022/02/24 07:21:39;;;;;;;9.93;7.23;;;;;;;17.68;42.23;97503.13;4867541;29;20273;-85
2022/02/24 07:24:07;;;;;;;12.13;7.40;;;;;;;17.80;42.73;97517.22;4852719;29;20584;-85
2022/02/24 07:26:34;;;;;;;15.03;7.30;;;;;;;18.23;42.61;97597.13;4866279;29;20286;-84
2022/02/24 07:29:00;;;;;;;11.13;7.17;;;;;;;17.98;43.03;97548.56;4865952;29;20298;-86
2022/02/24 07:31:27;;;;;;;9.43;6.30;;;;;;;17.06;43.37;97406.34;4850873;29;20244;-85
2022/02/24 07:33:53;;;;;;;12.10;7.20;;;;;;;18.01;43.38;97540.19;4875978;24;20680;-79
2022/02/24 07:36:20;;;;;;;10.87;6.63;;;;;;;16.94;43.37;97355.03;4895546;29;20626;-79
2022/02/24 07:38:47;;;;;;;9.23;6.37;;;;;;;17.71;43.30;97496.50;4891488;29;20276;-78
2022/02/24 07:41:13;;;;;;;9.73;6.53;;;;;;;18.59;43.73;97650.44;4899406;29;20202;-78
2022/02/24 07:43:40;;;;;;;10.57;6.90;;;;;;;18.59;43.56;97648.75;4903659;29;20213;-80
2022/02/24 07:46:06;;;;;;;10.07;6.43;;;;;;;18.27;43.67;97583.72;4908937;29;20198;-79
2022/02/24 07:48:33;;;;;;;9.93;6.77;;;;;;;18.59;43.89;97637.72;4899560;29;20204;-79
2022/02/24 07:50:59;;;;;;;8.60;6.07;;;;;;;18.59;44.23;97641.09;4890105;29;20252;-78
2022/02/24 07:53:28;;;;;;;9.83;6.40;;;;;;;18.03;43.65;97548.75;4897224;29;20250;-78
2022/02/24 07:55:55;;;;;;;10.57;6.63;;;;;;;17.56;43.96;97446.69;4888962;29;20212;-78
2022/02/24 07:58:21;;;;;;;11.77;6.10;;;;;;;18.60;43.97;97626.72;4885292;29;20638;-79
2022/02/24 08:00:48;;;;;;;9.73;6.70;;;;;;;17.98;43.96;97515.50;4887359;29;20241;-77
2022/02/24 08:03:17;;;;;;;10.53;6.63;;;;;;;17.76;43.89;97478.91;4884973;29;20301;-79
2022/02/24 08:05:44;;;;;;;11.13;6.67;;;;;;;18.60;44.01;97622.50;4881031;29;20676;-78
2022/02/24 08:08:11;;;;;;;9.33;6.27;;;;;;;15.82;44.09;97143.66;4919257;29;20647;-78
2022/02/24 08:10:38;;;;;;;8.43;6.27;;;;;;;18.60;43.95;97627.59;4876219;29;20230;-79
2022/02/24 08:13:04;;;;;;;8.70;5.77;;;;;;;18.31;43.83;97568.59;4875117;29;20274;-78
2022/02/24 08:15:31;;;;;;;9.43;6.20;;;;;;;18.03;44.09;97529.28;4892464;29;20221;-79
2022/02/24 08:17:58;;;;;;;9.80;5.87;;;;;;;17.42;43.69;97420.66;4877333;29;20205;-80
2022/02/24 08:20:24;;;;;;;8.60;5.93;;;;;;;18.01;43.74;97512.22;4885106;29;20274;-79
2022/02/24 08:22:53;;;;;;;7.20;5.30;;;;;;;17.92;44.03;97505.03;4855010;29;20237;-79
2022/02/24 08:25:22;;;;;;;8.10;6.10;;;;;;;18.61;44.02;97613.19;4864192;29;20282;-78
2022/02/24 08:27:48;;;;;;;8.73;5.57;;;;;;;18.02;42.76;97519.91;4900499;29;20280;-78
2022/02/24 08:30:20;;;;;;;9.37;6.07;;;;;;;18.02;42.75;97511.41;4900995;29;20206;-78
2022/02/24 08:32:47;;;;;;;9.37;5.77;;;;;;;18.03;43.01;97505.53;4858555;29;20258;-80
2022/02/24 08:35:14;;;;;;;7.83;5.90;;;;;;;16.04;43.12;97156.47;4876423;29;20213;-77
2022/02/24 08:37:44;;;;;;;10.17;5.87;;;;;;;17.81;43.33;97467.28;4891752;29;20237;-79
2022/02/24 08:40:11;;;;;;;8.20;5.43;;;;;;;18.31;43.09;97566.06;4872762;29;20233;-79
2022/02/24 08:42:37;;;;;;;7.83;5.53;;;;;;;18.60;43.55;97598.72;4885338;29;20295;-81
2022/02/24 08:45:04;;;;;;;7.73;5.63;;;;;;;18.29;43.61;97537.16;4886200;29;20661;-79
2022/02/24 08:47:36;;;;;;;8.10;5.87;;;;;;;17.96;43.37;97481.50;4900114;29;20226;-79
2022/02/24 08:50:03;;;;;;;8.97;5.67;;;;;;;18.34;43.98;97545.81;4885819;29;20665;-79
2022/02/24 08:52:49;;;;;;;9.33;5.70;;;;;;;18.63;43.61;97597.19;4876202;29;20631;-78
2022/02/24 08:55:16;;;;;;;8.87;5.53;;;;;;;16.17;43.63;97162.97;4886490;29;20942;-79
2022/02/24 08:57:42;;;;;;;7.97;5.23;;;;;;;18.65;43.80;97587.06;4876630;29;20301;-79
2022/02/24 09:00:09;;;;;;;6.93;5.00;;;;;;;18.65;43.70;97590.47;4887804;29;20583;-79
2022/02/24 09:02:36;;;;;;;9.57;5.50;;;;;;;18.33;43.84;97537.34;4893600;29;20277;-80
2022/02/24 09:05:03;;;;;;;8.13;5.80;;;;;;;17.62;44.00;97399.53;4887106;29;20206;-80
2022/02/24 09:07:32;;;;;;;7.93;5.50;;;;;;;18.66;44.09;97579.50;4881367;29;20206;-79
2022/02/24 09:10:19;;;;;;;7.20;5.47;;;;;;;18.68;44.24;97577.84;4911339;29;20208;-80
2022/02/24 09:12:46;;;;;;;7.50;5.10;;;;;;;18.68;43.75;97567.69;4904889;29;20664;-79
2022/02/24 09:15:12;;;;;;;6.50;5.20;;;;;;;18.69;43.78;97559.25;4896083;29;20778;-78
2022/02/24 09:17:39;;;;;;;9.87;5.73;;;;;;;17.20;44.16;97306.22;4895986;29;20647;-79
2022/02/24 09:20:06;;;;;;;6.17;4.87;;;;;;;18.35;44.02;97505.19;4880274;29;20234;-78
2022/02/24 09:22:35;;;;;;;7.00;5.10;;;;;;;18.30;44.09;97477.81;4891489;29;20811;-79
2022/02/24 09:25:02;;;;;;;9.97;5.50;;;;;;;18.08;44.00;97446.44;4857624;29;20198;-79
2022/02/24 09:27:29;;;;;;;6.83;5.00;;;;;;;18.33;44.59;97488.13;4864916;29;20552;-80
2022/02/24 09:29:56;;;;;;;6.60;5.00;;;;;;;17.67;44.31;97372.66;4886219;29;20205;-77
2022/02/24 09:32:23;;;;;;;6.90;4.67;;;;;;;18.12;44.07;97445.72;4885815;29;20206;-79
2022/02/24 09:34:49;;;;;;;6.97;4.83;;;;;;;17.83;44.14;97390.25;4862657;29;20297;-79
2022/02/24 09:37:17;;;;;;;6.93;4.60;;;;;;;17.07;44.14;97258.28;4881130;29;20220;-79
2022/02/24 09:39:44;;;;;;;6.53;4.80;;;;;;;18.66;44.48;97536.22;4877844;29;20237;-78
2022/02/24 09:42:11;;;;;;;6.07;5.10;;;;;;;18.68;44.50;97543.91;4897032;29;20237;-79
2022/02/24 09:44:40;;;;;;;5.97;4.90;;;;;;;17.75;44.40;97378.94;4896255;29;20259;-78
2022/02/24 09:47:08;;;;;;;5.83;4.43;;;;;;;17.91;44.66;97409.25;4875725;29;20206;-79
2022/02/24 09:49:35;;;;;;;5.37;4.77;;;;;;;18.27;44.42;97459.09;4870541;29;20206;-81
2022/02/24 09:52:01;;;;;;;6.30;4.50;;;;;;;17.71;44.67;97366.88;4878398;29;20790;-79
2022/02/24 09:54:28;;;;;;;8.73;4.63;;;;;;;18.04;44.69;97433.53;4867835;29;20763;-80
2022/02/24 09:56:55;;;;;;;6.63;4.67;;;;;;;16.56;44.93;97169.78;4879507;29;20268;-79
2022/02/24 09:59:22;;;;;;;5.77;4.20;;;;;;;17.14;44.58;97267.03;4889722;29;20210;-79
2022/02/24 10:01:49;;;;;;;5.73;4.27;;;;;;;17.97;44.80;97401.03;4896027;29;20607;-79
2022/02/24 10:04:16;;;;;;;6.30;4.83;;;;;;;18.27;44.66;97437.00;4859214;29;20217;-80
2022/02/24 10:06:44;;;;;;;5.87;4.07;;;;;;;18.00;44.66;97393.53;4881829;29;20210;-81
2022/02/24 10:09:11;;;;;;;6.57;4.50;;;;;;;17.51;44.71;97316.94;4849379;29;20292;-80
2022/02/24 10:11:41;;;;;;;6.90;4.63;;;;;;;18.30;44.82;97448.19;4862227;29;20209;-78
2022/02/24 10:14:25;;;;;;;8.20;4.50;;;;;;;18.33;44.81;97460.16;4864757;29;20257;-79
2022/02/24 10:16:59;;;;;;;4.90;4.10;;;;;;;18.32;45.32;97444.00;4866204;29;20258;-79
2022/02/24 10:19:35;;;;;;;5.53;4.03;;;;;;;18.63;45.00;97499.59;4867119;29;20651;-80
2022/02/24 10:22:11;;;;;;;6.80;4.40;;;;;;;18.62;44.80;97490.22;4891448;29;20240;-79
2022/02/24 10:24:38;;;;;;;5.50;4.33;;;;;;;17.71;44.97;97331.31;4898406;29;20245;-82
2022/02/24 10:27:19;;;;;;;6.03;4.40;;;;;;;17.60;44.80;97303.72;4879436;29;20230;-80
2022/02/24 10:30:04;;;;;;;5.17;4.40;;;;;;;18.63;45.01;97463.94;4849344;29;20234;-80
2022/02/24 10:32:36;;;;;;;6.30;4.37;;;;;;;18.11;45.10;97369.38;4880264;29;20234;-80
2022/02/24 10:35:18;;;;;;;6.00;4.30;;;;;;;18.63;45.05;97453.78;4881580;29;20671;-79
2022/02/24 10:38:05;;;;;;;6.30;3.80;;;;;;;17.15;45.04;97207.84;4887887;29;20237;-79
2022/02/24 10:40:46;;;;;;;4.70;3.80;;;;;;;18.45;45.31;97419.97;4879840;29;20625;-78
2022/02/24 10:43:16;;;;;;;4.40;3.70;;;;;;;18.63;45.22;97451.22;4871312;29;20276;-79
2022/02/24 10:45:46;;;;;;;6.83;4.10;;;;;;;17.67;44.98;97281.16;4894723;29;20285;-80
2022/02/24 10:48:13;;;;;;;5.17;3.73;;;;;;;17.99;45.15;97333.28;4883061;29;20206;-80
2022/02/24 10:51:05;;;;;;;4.90;3.77;;;;;;;18.62;45.07;97436.78;4878744;29;20619;-83
2022/02/24 10:53:33;;;;;;;4.90;3.87;;;;;;;15.93;45.16;96961.69;4894013;29;20277;-81
2022/02/24 10:56:09;;;;;;;5.13;4.07;;;;;;;17.50;44.81;97225.41;4884009;29;20757;-81
2022/02/24 10:58:43;;;;;;;4.87;4.03;;;;;;;18.11;45.04;97323.59;4883224;29;20229;-80
2022/02/24 11:01:23;;;;;;;5.10;3.77;;;;;;;18.64;45.12;97408.00;4881462;29;20232;-80
2022/02/24 11:03:56;;;;;;;5.23;3.80;;;;;;;17.91;45.12;97288.88;4885342;29;20711;-81
2022/02/24 11:06:24;;;;;;;6.50;4.30;;;;;;;18.38;45.21;97344.22;4866824;29;20221;-79
2022/02/24 11:08:51;;;;;;;6.13;4.43;;;;;;;18.07;44.80;97311.59;4856947;29;20233;-79
2022/02/24 11:11:22;;;;;;;4.63;3.53;;;;;;;17.77;44.85;97240.06;4864962;29;20199;-79
2022/02/24 11:13:49;;;;;;;5.90;3.80;;;;;;;18.06;45.08;97284.44;4913011;29;20253;-79
2022/02/24 11:16:18;;;;;;;5.00;3.73;;;;;;;17.78;44.75;97226.56;4869644;29;20270;-76
2022/02/24 11:18:45;;;;;;;4.60;3.73;;;;;;;18.68;44.81;97379.31;4884502;29;20217;-78
2022/02/24 11:21:12;;;;;;;4.70;4.00;;;;;;;17.74;45.00;97206.91;4892149;29;20210;-78
2022/02/24 11:23:40;;;;;;;5.67;3.80;;;;;;;18.00;44.92;97257.06;4884531;29;20222;-79
2022/02/24 11:26:17;;;;;;;4.67;3.50;;;;;;;18.42;45.09;97316.41;4893056;29;20637;-74
2022/02/24 11:28:49;;;;;;;4.23;3.40;;;;;;;18.40;44.86;97305.28;4886531;29;20272;-78
2022/02/24 11:31:42;;;;;;;4.33;3.70;;;;;;;18.72;44.87;97355.72;4866596;29;20665;-75
2022/02/24 11:34:09;;;;;;;5.85;3.70;;;;;;;18.14;45.14;97253.41;4903167;29;20304;-77
2022/02/24 11:36:40;;;;;;;5.00;3.80;;;;;;;16.86;45.04;97021.38;4882793;29;20285;-78
2022/02/24 11:39:10;;;;;;;3.80;3.33;;;;;;;18.74;45.14;97340.50;4851396;29;20238;-77
2022/02/24 11:41:45;;;;;;;4.50;3.67;;;;;;;18.74;44.99;97343.91;4904294;29;20252;-79
2022/02/24 11:44:31;;;;;;;4.27;3.50;;;;;;;18.76;44.81;97338.88;4911394;29;20224;-78
2022/02/24 11:47:07;;;;;;;4.27;3.40;;;;;;;18.75;45.07;97322.75;4892002;29;20957;-78
2022/02/24 11:49:56;;;;;;;4.10;3.70;;;;;;;18.77;44.80;97320.25;4880141;29;20225;-79
2022/02/24 11:52:24;;;;;;;3.70;3.23;;;;;;;18.39;44.74;97255.22;4900908;29;20298;-79
2022/02/24 11:54:51;;;;;;;3.73;3.37;;;;;;;17.53;44.79;97099.34;4894359;29;20666;-79
2022/02/24 11:57:29;;;;;;;3.57;3.27;;;;;;;18.75;44.90;97307.47;4895191;29;20298;-77
2022/02/24 11:59:57;;;;;;;4.17;3.60;;;;;;;18.15;45.16;97203.41;4901862;29;20236;-76
2022/02/24 12:02:43;;;;;;;4.10;3.50;;;;;;;16.31;44.74;96871.19;4873080;29;20230;-78
2022/02/24 12:05:22;;;;;;;4.03;3.30;;;;;;;18.74;45.19;97294.69;4890311;29;20577;-78
2022/02/24 12:08:13;;;;;;;3.87;3.27;;;;;;;16.96;45.15;96990.44;4906691;29;20288;-77
2022/02/24 12:10:45;;;;;;;4.27;3.40;;;;;;;18.73;45.00;97280.22;4854861;29;20702;-78
2022/02/24 12:13:26;;;;;;;4.40;3.40;;;;;;;18.41;44.95;97233.22;4895538;29;20316;-77
2022/02/24 12:16:15;;;;;;;3.40;3.10;;;;;;;18.70;45.11;97275.88;4890891;29;20317;-78
2022/02/24 12:18:42;;;;;;;3.20;2.90;;;;;;;18.34;44.93;97217.66;4892018;29;20210;-76
2022/02/24 12:21:31;;;;;;;3.80;3.17;;;;;;;18.12;45.35;97173.63;4893196;29;20261;-78
2022/02/24 12:23:58;;;;;;;3.57;2.83;;;;;;;18.27;45.11;97199.63;4897568;29;20312;-78
2022/02/24 12:26:41;;;;;;;3.60;3.00;;;;;;;18.68;45.24;97269.03;4908890;29;20691;-78
2022/02/24 12:29:26;;;;;;;4.00;3.50;;;;;;;18.67;45.39;97265.59;4877550;29;20252;-78
2022/02/24 12:31:58;;;;;;;4.03;3.43;;;;;;;17.83;45.55;97112.34;4887723;29;20202;-78
2022/02/24 12:35:18;;;;;;;3.20;2.90;;;;;;;18.34;45.28;97204.94;5085477;27;20537;-79
2022/02/24 12:37:45;;;;;;;3.37;3.07;;;;;;;18.67;45.25;97245.22;5088310;28;20200;-77
2022/02/24 12:40:37;;;;;;;3.50;3.00;;;;;;;15.87;45.47;96762.13;5084650;28;20231;-78
2022/02/24 12:43:08;;;;;;;3.47;2.90;;;;;;;18.29;45.64;97174.25;5068186;28;20289;-77
2022/02/24 12:45:37;;;;;;;3.17;2.87;;;;;;;14.24;45.70;96523.50;5049910;28;20201;-80
2022/02/24 12:48:08;;;;;;;3.17;2.87;;;;;;;18.02;45.39;97119.84;5059417;28;20254;-78
2022/02/24 12:50:41;;;;;;;4.20;2.80;;;;;;;18.00;45.24;97106.22;5051445;28;20258;-86
2022/02/24 12:53:11;;;;;;;4.03;3.20;;;;;;;18.67;45.47;97218.91;5053465;28;20219;-86
2022/02/24 12:55:38;;;;;;;4.07;3.20;;;;;;;17.72;45.44;97045.00;5062474;28;20673;-84